createdAt,value
2023-01-23T00:00:20.184Z,23.65
2023-01-23T00:05:24.609Z,23.83
2023-01-23T00:10:29.248Z,24.17
2023-01-23T00:20:39.429Z,21.40
2023-01-23T00:30:49.752Z,20.73
2023-01-23T00:35:56.276Z,21.75
2023-01-23T00:41:00.631Z,20.05
2023-01-23T00:46:06.851Z,21.17
2023-01-23T00:51:11.535Z,21.33
2023-01-23T01:01:22.922Z,21.33
2023-01-23T01:06:29.748Z,23.67
2023-01-23T01:11:35.703Z,21.88
2023-01-23T01:16:45.361Z,22.90
2023-01-23T01:21:49.976Z,23.42
2023-01-23T01:26:55.212Z,22.77
2023-01-23T01:32:02.147Z,23.33
2023-01-23T01:37:06.659Z,24.70
2023-01-23T01:42:11.173Z,25.95
2023-01-23T01:47:17.184Z,25.50
2023-01-23T01:52:23.240Z,24.65
2023-01-23T01:57:32.917Z,23.10
2023-01-23T02:02:44.930Z,23.63
2023-01-23T02:07:56.239Z,22.67
2023-01-23T02:13:26.302Z,21.42
2023-01-23T02:18:35.162Z,20.55
2023-01-23T02:23:56.738Z,21.98
2023-01-23T02:29:06.533Z,23.53
2023-01-23T02:34:22.433Z,24.05
2023-01-23T02:39:28.169Z,21.23
2023-01-23T02:44:35.329Z,23.73
2023-01-23T02:49:42.811Z,23.20
2023-01-23T02:54:48.080Z,23.25
2023-01-23T03:00:11.615Z,22.63
2023-01-23T03:05:17.370Z,22.48
2023-01-23T03:10:22.245Z,20.15
2023-01-23T03:15:28.537Z,20.88
2023-01-23T03:20:40.602Z,19.27
2023-01-23T03:25:45.722Z,20.35
2023-01-23T03:30:51.880Z,17.08
2023-01-23T03:35:56.415Z,19.23
2023-01-23T03:46:25.231Z,17.40
2023-01-23T03:51:29.957Z,20.45
2023-01-23T03:56:35.043Z,17.08
2023-01-23T04:01:41.049Z,18.70
2023-01-23T04:06:45.491Z,17.80
2023-01-23T04:11:50.324Z,19.92
2023-01-23T04:16:56.439Z,19.65
2023-01-23T04:22:02.144Z,17.98
2023-01-23T04:27:11.102Z,19.95
2023-01-23T04:37:23.929Z,18.05
2023-01-23T04:47:49.581Z,20.30
2023-01-23T04:52:54.603Z,19.45
2023-01-23T04:57:58.990Z,19.38
2023-01-23T05:03:07.449Z,21.30
2023-01-23T05:08:12.945Z,20.92
2023-01-23T05:13:19.433Z,18.58
2023-01-23T05:18:26.220Z,17.98
2023-01-23T05:23:31.722Z,19.35
2023-01-23T05:28:36.432Z,19.95
2023-01-23T05:33:43.027Z,20.02
2023-01-23T05:38:48.468Z,19.55
2023-01-23T05:43:53.661Z,19.45
2023-01-23T05:49:08.498Z,21.70
2023-01-23T05:54:13.368Z,20.90
2023-01-23T05:59:22.074Z,21.60
2023-01-23T06:04:42.642Z,17.02
2023-01-23T06:09:56.887Z,16.65
2023-01-23T06:15:01.272Z,16.15
2023-01-23T06:20:09.641Z,18.20
2023-01-23T06:25:16.095Z,16.85
2023-01-23T06:30:21.325Z,15.63
2023-01-23T06:35:28.532Z,17.83
2023-01-23T06:40:33.299Z,18.98
2023-01-23T06:51:05.158Z,16.45
2023-01-23T06:56:11.688Z,18.25
2023-01-23T07:01:19.420Z,15.82
2023-01-23T07:06:43.722Z,16.17
2023-01-23T07:11:51.923Z,19.20
2023-01-23T07:16:56.812Z,16.10
2023-01-23T07:22:03.554Z,17.20
2023-01-23T07:27:08.179Z,17.38
2023-01-23T07:32:12.409Z,18.15
2023-01-23T07:37:18.178Z,18.17
2023-01-23T07:42:22.813Z,16.75
2023-01-23T07:47:29.363Z,19.20
2023-01-23T07:52:35.335Z,18.90
2023-01-23T07:57:39.655Z,23.08
2023-01-23T08:02:44.141Z,25.27
2023-01-23T08:07:52.297Z,27.33
2023-01-23T08:13:02.396Z,36.83
2023-01-23T08:18:07.511Z,32.67
2023-01-23T08:23:13.533Z,27.27
2023-01-23T08:28:18.666Z,30.45
2023-01-23T08:33:23.982Z,28.27
2023-01-23T08:38:30.156Z,28.42
2023-01-23T08:43:34.895Z,28.85
2023-01-23T08:48:39.977Z,26.40
2023-01-23T08:53:45.809Z,26.20
2023-01-23T08:58:51.550Z,25.70
2023-01-23T09:03:56.086Z,22.52
2023-01-23T09:09:02.880Z,22.60
2023-01-23T09:14:07.576Z,22.75
2023-01-23T09:24:18.807Z,23.98
2023-01-23T09:29:23.675Z,22.05
2023-01-23T09:34:28.393Z,22.48
2023-01-23T09:39:34.255Z,21.05
2023-01-23T09:44:43.464Z,21.88
2023-01-23T09:49:58.492Z,22.83
2023-01-23T09:55:14.418Z,23.92
2023-01-23T10:00:26.104Z,21.85
2023-01-23T10:05:41.651Z,24.35
2023-01-23T10:11:00.002Z,24.58
2023-01-23T10:16:50.685Z,26.23
2023-01-23T10:22:04.670Z,23.60
2023-01-23T10:27:21.044Z,26.10
2023-01-23T10:32:29.074Z,26.17
2023-01-23T10:37:49.906Z,27.98
2023-01-23T10:42:55.731Z,28.13
2023-01-23T10:48:03.663Z,31.70
2023-01-23T10:53:10.331Z,34.30
2023-01-23T10:58:33.235Z,29.67
2023-01-23T11:03:37.972Z,30.33
2023-01-23T11:14:12.020Z,30.70
2023-01-23T11:19:23.531Z,28.90
2023-01-23T11:24:40.820Z,29.27
2023-01-23T11:30:04.247Z,28.80
2023-01-23T11:35:16.992Z,28.48
2023-01-23T11:40:22.164Z,26.60
2023-01-23T11:45:49.504Z,29.80
2023-01-23T11:51:03.709Z,31.65
2023-01-23T11:56:44.557Z,32.17
2023-01-23T12:02:30.831Z,29.98
2023-01-23T12:07:40.923Z,28.63
2023-01-23T12:13:12.580Z,28.90
2023-01-23T12:18:35.299Z,26.55
2023-01-23T12:24:00.076Z,30.83
2023-01-23T12:29:30.400Z,29.73
2023-01-23T12:35:02.648Z,29.38
2023-01-23T12:40:14.043Z,28.92
2023-01-23T12:45:25.936Z,26.90
2023-01-23T12:50:43.433Z,26.42
2023-01-23T12:56:00.597Z,28.33
2023-01-23T13:01:39.310Z,25.23
2023-01-23T13:07:04.158Z,26.35
2023-01-23T13:12:20.583Z,25.02
2023-01-23T13:17:39.033Z,25.52
2023-01-23T13:22:45.004Z,26.50
2023-01-23T13:27:52.928Z,23.10
2023-01-23T13:33:00.824Z,28.38
2023-01-23T13:38:37.648Z,29.17
2023-01-23T13:43:54.527Z,26.50
2023-01-23T14:21:52.254Z,27.90
2023-01-23T14:27:10.454Z,31.05
2023-01-23T14:32:24.887Z,32.15
2023-01-23T14:37:32.484Z,32.72
2023-01-23T14:42:39.240Z,28.60
2023-01-23T14:47:53.437Z,27.40
2023-01-23T14:53:04.620Z,30.10
2023-01-23T14:58:19.851Z,34.40
2023-01-23T15:03:42.558Z,32.10
2023-01-23T15:08:48.110Z,32.15
2023-01-23T15:14:01.234Z,31.38
2023-01-23T15:19:20.291Z,26.55
2023-01-23T15:24:29.526Z,26.08
2023-01-23T15:29:36.178Z,25.25
2023-01-23T15:34:40.615Z,26.67
2023-01-23T15:45:01.391Z,22.58
2023-01-23T15:50:08.648Z,23.48
2023-01-23T15:55:14.509Z,25.98
2023-01-23T16:00:25.092Z,27.75
2023-01-23T16:05:34.169Z,28.00
2023-01-23T16:10:40.341Z,28.35
2023-01-23T16:15:45.951Z,26.98
2023-01-23T16:20:50.555Z,27.33
2023-01-23T16:25:55.552Z,28.25
2023-01-23T16:31:01.265Z,28.20
2023-01-23T16:36:08.581Z,25.45
2023-01-23T16:41:13.241Z,25.52
2023-01-23T16:51:26.086Z,25.30
2023-01-23T16:56:37.159Z,24.30
2023-01-23T17:01:46.664Z,24.50
2023-01-23T17:06:51.734Z,24.40
2023-01-23T17:11:58.210Z,27.02
2023-01-23T17:17:08.834Z,27.58
2023-01-23T17:22:22.032Z,25.17
2023-01-23T17:27:26.562Z,23.60
2023-01-23T17:32:36.000Z,24.52
2023-01-23T17:37:41.212Z,24.20
2023-01-23T17:42:46.182Z,20.45
2023-01-23T17:47:55.590Z,20.65
2023-01-23T17:53:00.735Z,19.42
2023-01-23T17:58:05.147Z,18.48
2023-01-23T18:03:15.141Z,19.33
2023-01-23T18:08:22.690Z,19.58
2023-01-23T18:13:38.199Z,18.80
2023-01-23T18:18:46.860Z,20.48
2023-01-23T18:23:52.075Z,19.45
2023-01-23T18:29:04.656Z,18.60
2023-01-23T18:34:28.410Z,17.48
2023-01-23T18:40:00.383Z,18.33
2023-01-23T18:45:13.879Z,18.75
2023-01-23T18:55:37.981Z,18.15
2023-01-23T19:00:49.830Z,18.58
2023-01-23T19:05:56.202Z,16.75
2023-01-23T19:11:07.433Z,15.93
2023-01-23T19:16:17.608Z,14.10
2023-01-23T19:21:27.496Z,16.75
2023-01-23T19:26:34.798Z,15.23
2023-01-23T19:31:41.611Z,15.23
2023-01-23T19:36:48.408Z,15.98
2023-01-23T19:41:53.390Z,16.13
2023-01-23T19:46:57.926Z,14.70
2023-01-23T19:52:06.087Z,14.95
2023-01-23T19:57:10.564Z,16.98
2023-01-23T20:02:20.369Z,17.48
2023-01-23T20:07:25.973Z,17.90
2023-01-23T20:12:30.267Z,18.70
2023-01-23T20:17:34.572Z,17.45
2023-01-23T20:22:41.273Z,18.70
2023-01-23T20:27:45.923Z,17.27
2023-01-23T20:37:56.094Z,21.73
2023-01-23T20:43:00.610Z,16.70
2023-01-23T20:48:05.762Z,19.67
2023-01-23T20:53:34.285Z,17.58
2023-01-23T20:58:58.642Z,18.38
2023-01-23T21:04:03.213Z,18.10
2023-01-23T21:14:14.059Z,19.85
2023-01-23T21:19:19.224Z,21.00
2023-01-23T21:24:25.322Z,20.90
2023-01-23T21:29:30.079Z,21.27
2023-01-23T21:34:34.551Z,21.75
2023-01-23T21:39:41.054Z,21.25
2023-01-23T21:44:45.495Z,22.23
2023-01-23T21:49:51.635Z,22.95
2023-01-23T21:54:57.614Z,23.02
2023-01-23T22:00:19.496Z,22.05
2023-01-23T22:05:23.704Z,24.13
2023-01-23T22:10:29.407Z,23.70
2023-01-23T22:15:33.863Z,23.20
2023-01-23T22:20:39.569Z,20.77
2023-01-23T22:25:45.121Z,20.95
2023-01-23T22:30:49.378Z,19.73
2023-01-23T22:35:53.743Z,19.83
2023-01-23T22:41:00.990Z,22.45
2023-01-23T22:46:12.119Z,21.48
2023-01-23T22:51:20.080Z,22.80
2023-01-23T22:56:27.797Z,23.52
2023-01-23T23:01:32.325Z,22.40
2023-01-23T23:06:36.897Z,23.15
2023-01-23T23:11:42.904Z,22.52
2023-01-23T23:16:47.129Z,21.50
2023-01-23T23:21:51.778Z,22.67
2023-01-23T23:26:57.356Z,22.58
2023-01-23T23:32:01.906Z,22.98
2023-01-23T23:37:06.758Z,22.58
2023-01-23T23:42:12.575Z,23.40
2023-01-23T23:47:17.045Z,22.73
2023-01-23T23:57:27.027Z,22.60
